createdAt,value
2023-02-14T00:00:37.000Z,412.0
2023-02-14T00:01:38.000Z,455.0
2023-02-14T00:02:38.000Z,561.0
2023-02-14T00:03:37.000Z,781.0
2023-02-14T00:04:38.000Z,454.0
2023-02-14T00:05:37.000Z,730.0
2023-02-14T00:06:38.000Z,1112.0
2023-02-14T00:07:38.000Z,1412.0
2023-02-14T00:08:37.000Z,1039.0
2023-02-14T00:09:38.000Z,1243.0
2023-02-14T00:10:38.000Z,1306.0
2023-02-14T00:11:37.000Z,1512.0
2023-02-14T00:12:38.000Z,1756.0
2023-02-14T00:13:38.000Z,2073.0
2023-02-14T00:14:37.000Z,2342.0
2023-02-14T00:15:38.000Z,2567.0
2023-02-14T00:16:38.000Z,2677.0
2023-02-14T00:17:38.000Z,2411.0
2023-02-14T00:18:38.000Z,2236.0
2023-02-14T00:19:37.000Z,2431.0
2023-02-14T00:20:38.000Z,2758.0
2023-02-14T00:21:38.000Z,2908.0
2023-02-14T00:22:38.000Z,3026.0
2023-02-14T00:23:38.000Z,3097.0
2023-02-14T00:24:37.000Z,3180.0
2023-02-14T00:25:38.000Z,3151.0
2023-02-14T00:26:38.000Z,3073.0
2023-02-14T00:27:37.000Z,3181.0
2023-02-14T00:28:38.000Z,3046.0
2023-02-14T00:29:38.000Z,3156.0
2023-02-14T00:30:38.000Z,2892.0
2023-02-14T00:31:38.000Z,807.0
2023-02-14T00:32:37.000Z,650.0
2023-02-14T00:33:38.000Z,454.0
2023-02-14T00:34:38.000Z,341.0
2023-02-14T00:35:37.000Z,525.0
2023-02-14T00:36:38.000Z,628.0
2023-02-14T00:37:37.000Z,923.0
2023-02-14T00:38:38.000Z,1105.0
2023-02-14T00:39:38.000Z,1418.0
2023-02-14T00:40:37.000Z,1543.0
2023-02-14T00:41:38.000Z,758.0
2023-02-14T00:42:38.000Z,395.0
2023-02-14T00:43:38.000Z,414.0
2023-02-14T00:44:38.000Z,311.0
2023-02-14T00:45:37.000Z,234.0
2023-02-14T00:46:38.000Z,211.0
2023-02-14T00:47:38.000Z,207.0
2023-02-14T00:48:38.000Z,206.0
2023-02-14T00:49:38.000Z,237.0
2023-02-14T00:50:37.000Z,378.0
2023-02-14T00:51:38.000Z,660.0
2023-02-14T00:52:38.000Z,242.0
2023-02-14T00:53:37.000Z,196.0
2023-02-14T00:54:38.000Z,134.0
2023-02-14T00:55:38.000Z,133.0
2023-02-14T00:56:38.000Z,148.0
2023-02-14T00:57:38.000Z,183.0
2023-02-14T00:58:37.000Z,200.0
2023-02-14T00:59:38.000Z,224.0
2023-02-14T01:00:38.000Z,164.0
2023-02-14T01:01:37.000Z,202.0
2023-02-14T01:02:38.000Z,204.0
2023-02-14T01:03:37.000Z,193.0
2023-02-14T01:04:38.000Z,134.0
2023-02-14T01:05:38.000Z,122.0
2023-02-14T01:06:38.000Z,117.0
2023-02-14T01:07:38.000Z,103.0
2023-02-14T01:08:38.000Z,116.0
2023-02-14T01:09:37.000Z,132.0
2023-02-14T01:10:38.000Z,179.0
2023-02-14T01:11:38.000Z,216.0
2023-02-14T01:12:37.000Z,233.0
2023-02-14T01:13:38.000Z,237.0
2023-02-14T01:14:37.000Z,242.0
2023-02-14T01:15:38.000Z,261.0
2023-02-14T01:16:38.000Z,273.0
2023-02-14T01:17:37.000Z,276.0
2023-02-14T01:18:38.000Z,274.0
2023-02-14T01:19:38.000Z,266.0
2023-02-14T01:20:38.000Z,214.0
2023-02-14T01:21:38.000Z,186.0
2023-02-14T01:22:37.000Z,227.0
2023-02-14T01:23:38.000Z,219.0
2023-02-14T01:24:38.000Z,292.0
2023-02-14T01:25:37.000Z,358.0
2023-02-14T01:26:38.000Z,313.0
2023-02-14T01:27:38.000Z,310.0
2023-02-14T01:28:38.000Z,293.0
2023-02-14T01:29:38.000Z,273.0
2023-02-14T01:30:37.000Z,260.0
2023-02-14T01:31:38.000Z,256.0
2023-02-14T01:32:38.000Z,226.0
2023-02-14T01:33:38.000Z,182.0
2023-02-14T01:34:38.000Z,137.0
2023-02-14T01:35:37.000Z,119.0
2023-02-14T01:36:38.000Z,116.0
2023-02-14T01:37:38.000Z,125.0
2023-02-14T01:38:37.000Z,133.0
2023-02-14T01:39:38.000Z,134.0
2023-02-14T01:40:37.000Z,147.0
2023-02-14T01:41:38.000Z,153.0
2023-02-14T01:42:38.000Z,163.0
2023-02-14T01:43:37.000Z,192.0
2023-02-14T01:44:38.000Z,224.0
2023-02-14T01:45:38.000Z,260.0
2023-02-14T01:46:38.000Z,257.0
2023-02-14T01:47:38.000Z,308.0
2023-02-14T01:48:37.000Z,292.0
2023-02-14T01:49:38.000Z,310.0
2023-02-14T01:50:38.000Z,324.0
2023-02-14T01:51:37.000Z,329.0
2023-02-14T01:52:38.000Z,262.0
2023-02-14T01:53:38.000Z,220.0
2023-02-14T01:54:38.000Z,190.0
2023-02-14T01:55:38.000Z,171.0
2023-02-14T01:56:37.000Z,199.0
2023-02-14T01:57:38.000Z,168.0
2023-02-14T01:58:38.000Z,143.0
2023-02-14T01:59:38.000Z,124.0
2023-02-14T02:00:38.000Z,135.0
2023-02-14T02:01:37.000Z,142.0
2023-02-14T02:02:38.000Z,132.0
2023-02-14T02:03:38.000Z,135.0
2023-02-14T02:04:37.000Z,142.0
2023-02-14T02:05:38.000Z,172.0
2023-02-14T02:06:38.000Z,180.0
2023-02-14T02:07:37.000Z,230.0
2023-02-14T02:08:38.000Z,273.0
2023-02-14T02:09:38.000Z,310.0
2023-02-14T02:10:38.000Z,367.0
2023-02-14T02:11:38.000Z,428.0
2023-02-14T02:12:37.000Z,338.0
2023-02-14T02:13:38.000Z,344.0
2023-02-14T02:14:38.000Z,291.0
2023-02-14T02:15:37.000Z,243.0
2023-02-14T02:16:38.000Z,218.0
2023-02-14T02:17:38.000Z,238.0
2023-02-14T02:18:38.000Z,191.0
2023-02-14T02:19:38.000Z,227.0
2023-02-14T02:20:37.000Z,229.0
2023-02-14T02:21:38.000Z,127.0
2023-02-14T02:22:38.000Z,120.0
2023-02-14T02:23:37.000Z,101.0
2023-02-14T02:24:38.000Z,100.0
2023-02-14T02:25:37.000Z,92.0
2023-02-14T02:26:38.000Z,88.0
2023-02-14T02:27:38.000Z,90.0
2023-02-14T02:28:37.000Z,95.0
2023-02-14T02:29:38.000Z,84.0
2023-02-14T02:30:38.000Z,93.0
2023-02-14T02:31:38.000Z,95.0
2023-02-14T02:32:38.000Z,96.0
2023-02-14T02:33:37.000Z,94.0
2023-02-14T02:34:38.000Z,97.0
2023-02-14T02:35:38.000Z,88.0
2023-02-14T02:36:37.000Z,77.0
2023-02-14T02:37:38.000Z,75.0
2023-02-14T02:38:38.000Z,75.0
2023-02-14T02:39:38.000Z,92.0
2023-02-14T02:40:38.000Z,105.0
2023-02-14T02:41:37.000Z,77.0
2023-02-14T02:42:38.000Z,78.0
2023-02-14T02:43:38.000Z,74.0
2023-02-14T02:44:38.000Z,80.0
2023-02-14T02:45:38.000Z,17.0
2023-02-14T02:46:37.000Z,15.0
2023-02-14T02:47:38.000Z,10.0
2023-02-14T02:48:38.000Z,15.0
2023-02-14T02:49:37.000Z,26.0
2023-02-14T02:50:38.000Z,13.0
2023-02-14T02:51:38.000Z,20.0
2023-02-14T02:52:38.000Z,46.0
2023-02-14T02:53:38.000Z,7.0
2023-02-14T02:54:37.000Z,6.0
2023-02-14T02:55:38.000Z,11.0
2023-02-14T02:56:38.000Z,9.0
2023-02-14T02:57:38.000Z,6.0
2023-02-14T02:58:38.000Z,8.0
2023-02-14T02:59:37.000Z,11.0
2023-02-14T03:00:38.000Z,9.0
2023-02-14T03:01:38.000Z,27.0
2023-02-14T03:02:37.000Z,47.0
2023-02-14T03:03:38.000Z,11.0
2023-02-14T03:04:38.000Z,27.0
2023-02-14T03:05:38.000Z,8.0
2023-02-14T03:06:38.000Z,8.0
2023-02-14T03:07:37.000Z,26.0
2023-02-14T03:08:38.000Z,21.0
2023-02-14T03:09:38.000Z,39.0
2023-02-14T03:10:38.000Z,11.0
2023-02-14T03:11:38.000Z,8.0
2023-02-14T03:12:38.000Z,8.0
2023-02-14T03:13:38.000Z,15.0
2023-02-14T03:14:38.000Z,35.0
2023-02-14T03:15:37.000Z,22.0
2023-02-14T03:16:38.000Z,37.0
2023-02-14T03:17:38.000Z,57.0
2023-02-14T03:18:38.000Z,20.0
2023-02-14T03:19:38.000Z,13.0
2023-02-14T03:20:37.000Z,9.0
2023-02-14T03:21:38.000Z,26.0
2023-02-14T03:22:38.000Z,50.0
2023-02-14T03:23:37.000Z,58.0
2023-02-14T03:24:38.000Z,51.0
2023-02-14T03:25:37.000Z,38.0
2023-02-14T03:26:38.000Z,40.0
2023-02-14T03:27:38.000Z,61.0
2023-02-14T03:28:37.000Z,68.0
2023-02-14T03:29:38.000Z,70.0
2023-02-14T03:30:38.000Z,75.0
2023-02-14T03:31:38.000Z,71.0
2023-02-14T03:32:38.000Z,82.0
2023-02-14T03:33:37.000Z,85.0
2023-02-14T03:34:38.000Z,104.0
2023-02-14T03:35:38.000Z,116.0
2023-02-14T03:36:37.000Z,123.0
2023-02-14T03:37:38.000Z,136.0
2023-02-14T03:38:38.000Z,126.0
2023-02-14T03:39:38.000Z,134.0
2023-02-14T03:40:38.000Z,133.0
2023-02-14T03:41:37.000Z,135.0
2023-02-14T03:42:38.000Z,138.0
2023-02-14T03:43:38.000Z,145.0
2023-02-14T03:44:38.000Z,141.0
2023-02-14T03:45:38.000Z,138.0
2023-02-14T03:46:37.000Z,133.0
2023-02-14T03:47:38.000Z,125.0
2023-02-14T03:48:38.000Z,113.0
2023-02-14T03:49:37.000Z,119.0
2023-02-14T03:50:38.000Z,119.0
2023-02-14T03:51:38.000Z,116.0
2023-02-14T03:52:38.000Z,121.0
2023-02-14T03:53:38.000Z,118.0
2023-02-14T03:54:37.000Z,124.0
2023-02-14T03:55:38.000Z,118.0
2023-02-14T03:56:38.000Z,123.0
2023-02-14T03:57:38.000Z,128.0
2023-02-14T03:58:38.000Z,127.0
2023-02-14T03:59:37.000Z,112.0
2023-02-14T04:00:38.000Z,120.0
2023-02-14T04:01:38.000Z,116.0
2023-02-14T04:02:37.000Z,113.0
2023-02-14T04:03:38.000Z,110.0
2023-02-14T04:04:38.000Z,114.0
2023-02-14T04:05:38.000Z,111.0
2023-02-14T04:06:38.000Z,121.0
2023-02-14T04:07:37.000Z,133.0
2023-02-14T04:08:38.000Z,138.0
2023-02-14T04:09:38.000Z,137.0
2023-02-14T04:10:38.000Z,130.0
2023-02-14T04:11:38.000Z,121.0
2023-02-14T04:12:38.000Z,118.0
2023-02-14T04:13:38.000Z,115.0
2023-02-14T04:14:38.000Z,111.0
2023-02-14T04:15:37.000Z,124.0
2023-02-14T04:16:38.000Z,123.0
2023-02-14T04:17:38.000Z,109.0
2023-02-14T04:18:38.000Z,108.0
2023-02-14T04:19:38.000Z,106.0
2023-02-14T04:20:37.000Z,100.0
2023-02-14T04:21:38.000Z,104.0
2023-02-14T04:22:38.000Z,103.0
2023-02-14T04:23:37.000Z,107.0
2023-02-14T04:24:38.000Z,102.0
2023-02-14T04:25:37.000Z,103.0
2023-02-14T04:26:38.000Z,105.0
2023-02-14T04:27:38.000Z,107.0
2023-02-14T04:28:37.000Z,115.0
2023-02-14T04:29:38.000Z,117.0
2023-02-14T04:30:38.000Z,129.0
2023-02-14T04:31:38.000Z,130.0
2023-02-14T04:32:38.000Z,123.0
2023-02-14T04:33:37.000Z,107.0
2023-02-14T04:34:38.000Z,94.0
2023-02-14T04:35:38.000Z,97.0
2023-02-14T04:36:38.000Z,93.0
2023-02-14T04:37:38.000Z,88.0
2023-02-14T04:38:38.000Z,86.0
2023-02-14T04:39:38.000Z,95.0
2023-02-14T04:40:38.000Z,97.0
2023-02-14T04:41:37.000Z,104.0
2023-02-14T04:42:38.000Z,122.0
2023-02-14T04:43:38.000Z,132.0
2023-02-14T04:44:38.000Z,120.0
2023-02-14T04:45:38.000Z,109.0
2023-02-14T04:46:37.000Z,105.0
2023-02-14T04:47:38.000Z,111.0
2023-02-14T04:48:38.000Z,110.0
2023-02-14T04:49:37.000Z,117.0
2023-02-14T04:50:38.000Z,36.0
2023-02-14T04:51:38.000Z,54.0
2023-02-14T04:52:38.000Z,93.0
2023-02-14T04:53:38.000Z,89.0
2023-02-14T04:54:37.000Z,97.0
2023-02-14T04:55:38.000Z,116.0
2023-02-14T04:56:38.000Z,28.0
2023-02-14T04:57:38.000Z,65.0
2023-02-14T04:58:38.000Z,86.0
2023-02-14T04:59:37.000Z,108.0
2023-02-14T05:00:38.000Z,111.0
2023-02-14T05:01:38.000Z,107.0
2023-02-14T05:02:37.000Z,140.0
2023-02-14T05:03:38.000Z,136.0
2023-02-14T05:04:38.000Z,106.0
2023-02-14T05:05:38.000Z,108.0
2023-02-14T05:06:38.000Z,101.0
2023-02-14T05:07:38.000Z,117.0
2023-02-14T05:08:38.000Z,143.0
2023-02-14T05:09:38.000Z,143.0
2023-02-14T05:10:37.000Z,144.0
2023-02-14T05:11:38.000Z,155.0
2023-02-14T05:12:38.000Z,173.0
2023-02-14T05:13:37.000Z,177.0
2023-02-14T05:14:38.000Z,165.0
2023-02-14T05:15:38.000Z,156.0
2023-02-14T05:16:38.000Z,161.0
2023-02-14T05:17:38.000Z,179.0
2023-02-14T05:18:37.000Z,171.0
2023-02-14T05:19:38.000Z,130.0
2023-02-14T05:20:38.000Z,130.0
2023-02-14T05:21:38.000Z,134.0
2023-02-14T05:22:38.000Z,124.0
2023-02-14T05:23:37.000Z,114.0
2023-02-14T05:24:38.000Z,114.0
2023-02-14T05:25:38.000Z,105.0
2023-02-14T05:26:37.000Z,95.0
2023-02-14T05:27:38.000Z,86.0
2023-02-14T05:28:38.000Z,96.0
2023-02-14T05:29:38.000Z,100.0
2023-02-14T05:30:38.000Z,100.0
2023-02-14T05:31:37.000Z,108.0
2023-02-14T05:32:38.000Z,111.0
2023-02-14T05:33:38.000Z,109.0
2023-02-14T05:34:38.000Z,118.0
2023-02-14T05:35:38.000Z,130.0
2023-02-14T05:36:39.000Z,111.0
2023-02-14T05:37:38.000Z,111.0
2023-02-14T05:38:38.000Z,100.0
2023-02-14T05:39:37.000Z,108.0
2023-02-14T05:40:38.000Z,107.0
2023-02-14T05:41:38.000Z,116.0
2023-02-14T05:42:38.000Z,106.0
2023-02-14T05:43:38.000Z,104.0
2023-02-14T05:44:37.000Z,107.0
2023-02-14T05:45:38.000Z,111.0
2023-02-14T05:46:38.000Z,105.0
2023-02-14T05:47:38.000Z,98.0
2023-02-14T05:48:38.000Z,99.0
2023-02-14T05:49:37.000Z,98.0
2023-02-14T05:50:38.000Z,103.0
2023-02-14T05:51:38.000Z,103.0
2023-02-14T05:52:37.000Z,83.0
2023-02-14T05:53:38.000Z,94.0
2023-02-14T05:54:38.000Z,100.0
2023-02-14T05:55:38.000Z,103.0
2023-02-14T05:56:38.000Z,111.0
2023-02-14T05:57:37.000Z,117.0
2023-02-14T05:58:38.000Z,118.0
2023-02-14T05:59:38.000Z,112.0
2023-02-14T06:00:38.000Z,120.0
2023-02-14T06:01:38.000Z,117.0
2023-02-14T06:02:38.000Z,115.0
2023-02-14T06:03:38.000Z,118.0
2023-02-14T06:04:38.000Z,123.0
2023-02-14T06:05:37.000Z,123.0
2023-02-14T06:06:38.000Z,137.0
2023-02-14T06:07:38.000Z,151.0
2023-02-14T06:08:37.000Z,142.0
2023-02-14T06:09:38.000Z,148.0
2023-02-14T06:10:38.000Z,160.0
2023-02-14T06:11:38.000Z,183.0
2023-02-14T06:12:38.000Z,194.0
2023-02-14T06:13:38.000Z,203.0
2023-02-14T06:14:38.000Z,228.0
2023-02-14T06:15:38.000Z,215.0
2023-02-14T06:16:37.000Z,210.0
2023-02-14T06:17:38.000Z,219.0
2023-02-14T06:18:38.000Z,223.0
2023-02-14T06:19:38.000Z,233.0
2023-02-14T06:20:38.000Z,244.0
2023-02-14T06:21:37.000Z,242.0
2023-02-14T06:22:38.000Z,225.0
2023-02-14T06:23:38.000Z,235.0
2023-02-14T06:24:37.000Z,225.0
2023-02-14T06:25:38.000Z,222.0
2023-02-14T06:26:39.000Z,217.0
2023-02-14T06:27:38.000Z,215.0
2023-02-14T06:28:38.000Z,222.0
2023-02-14T06:29:37.000Z,25.0
2023-02-14T06:30:38.000Z,83.0
2023-02-14T06:31:38.000Z,176.0
2023-02-14T06:32:38.000Z,282.0
2023-02-14T06:33:38.000Z,327.0
2023-02-14T06:34:37.000Z,343.0
2023-02-14T06:35:38.000Z,336.0
2023-02-14T06:36:38.000Z,319.0
2023-02-14T06:37:38.000Z,316.0
2023-02-14T06:38:38.000Z,347.0
2023-02-14T06:39:38.000Z,348.0
2023-02-14T06:40:38.000Z,366.0
2023-02-14T06:41:38.000Z,336.0
2023-02-14T06:42:37.000Z,343.0
2023-02-14T06:43:38.000Z,380.0
2023-02-14T06:44:38.000Z,405.0
2023-02-14T06:45:38.000Z,339.0
2023-02-14T06:46:38.000Z,406.0
2023-02-14T06:47:37.000Z,329.0
2023-02-14T06:48:38.000Z,291.0
2023-02-14T06:49:38.000Z,298.0
2023-02-14T06:50:37.000Z,285.0
2023-02-14T06:51:38.000Z,18.0
2023-02-14T06:52:38.000Z,11.0
2023-02-14T06:53:38.000Z,8.0
2023-02-14T06:54:38.000Z,6.0
2023-02-14T06:55:37.000Z,8.0
2023-02-14T06:56:38.000Z,13.0
2023-02-14T06:57:38.000Z,9.0
2023-02-14T06:58:38.000Z,18.0
2023-02-14T06:59:38.000Z,9.0
2023-02-14T07:00:39.000Z,9.0
2023-02-14T07:01:38.000Z,7.0
2023-02-14T07:02:38.000Z,11.0
2023-02-14T07:03:37.000Z,46.0
2023-02-14T07:04:38.000Z,138.0
2023-02-14T07:05:38.000Z,328.0
2023-02-14T07:06:37.000Z,535.0
2023-02-14T07:07:38.000Z,720.0
2023-02-14T07:08:38.000Z,857.0
2023-02-14T07:09:38.000Z,948.0
2023-02-14T07:10:38.000Z,1073.0
2023-02-14T07:11:39.000Z,1126.0
2023-02-14T07:12:38.000Z,1233.0
2023-02-14T07:13:38.000Z,1406.0
2023-02-14T07:14:37.000Z,1513.0
2023-02-14T07:15:38.000Z,1450.0
2023-02-14T07:16:38.000Z,1627.0
2023-02-14T07:17:38.000Z,1756.0
2023-02-14T07:18:38.000Z,1820.0
2023-02-14T07:19:37.000Z,1844.0
2023-02-14T07:20:38.000Z,1995.0
2023-02-14T07:21:38.000Z,2190.0
2023-02-14T07:22:38.000Z,2275.0
2023-02-14T07:23:38.000Z,2309.0
2023-02-14T07:24:37.000Z,2326.0
2023-02-14T07:25:38.000Z,2261.0
2023-02-14T07:26:38.000Z,2203.0
2023-02-14T07:27:37.000Z,2169.0
2023-02-14T07:28:38.000Z,2414.0
2023-02-14T07:29:38.000Z,2407.0
2023-02-14T07:30:38.000Z,2626.0
2023-02-14T07:31:38.000Z,2823.0
2023-02-14T07:32:37.000Z,3004.0
2023-02-14T07:33:38.000Z,3340.0
2023-02-14T07:34:38.000Z,3680.0
2023-02-14T07:35:38.000Z,3537.0
2023-02-14T07:36:38.000Z,3688.0
2023-02-14T07:37:39.000Z,4080.0
2023-02-14T07:38:38.000Z,4144.0
2023-02-14T07:39:38.000Z,4516.0
2023-02-14T07:40:37.000Z,4556.0
2023-02-14T07:41:38.000Z,4852.0
2023-02-14T07:42:38.000Z,4902.0
2023-02-14T07:43:38.000Z,4882.0
2023-02-14T07:44:38.000Z,5008.0
2023-02-14T07:45:37.000Z,5182.0
2023-02-14T07:46:38.000Z,5102.0
2023-02-14T07:47:38.000Z,5106.0
2023-02-14T07:48:38.000Z,5285.0
2023-02-14T07:49:38.000Z,4858.0
2023-02-14T07:50:39.000Z,4383.0
2023-02-14T07:51:38.000Z,4064.0
2023-02-14T07:52:38.000Z,3834.0
2023-02-14T07:53:37.000Z,4233.0
2023-02-14T07:54:38.000Z,4440.0
2023-02-14T07:55:38.000Z,4093.0
2023-02-14T07:56:38.000Z,3973.0
2023-02-14T07:57:38.000Z,3984.0
2023-02-14T07:58:37.000Z,3802.0
2023-02-14T07:59:38.000Z,3699.0
2023-02-14T08:00:38.000Z,3675.0
2023-02-14T08:01:38.000Z,3725.0
2023-02-14T08:02:38.000Z,3609.0
2023-02-14T08:03:38.000Z,3623.0
2023-02-14T08:04:38.000Z,3647.0
2023-02-14T08:05:38.000Z,3864.0
2023-02-14T08:06:37.000Z,4079.0
2023-02-14T08:07:38.000Z,4108.0
2023-02-14T08:08:38.000Z,3835.0
2023-02-14T08:09:38.000Z,3367.0
2023-02-14T08:10:38.000Z,3229.0
2023-02-14T08:11:39.000Z,3674.0
2023-02-14T08:12:38.000Z,4621.0
2023-02-14T08:13:38.000Z,4583.0
2023-02-14T08:14:37.000Z,4245.0
2023-02-14T08:15:38.000Z,4222.0
2023-02-14T08:16:38.000Z,3966.0
2023-02-14T08:17:38.000Z,4064.0
2023-02-14T08:18:38.000Z,3867.0
2023-02-14T08:19:37.000Z,4062.0
2023-02-14T08:20:38.000Z,4276.0
2023-02-14T08:21:38.000Z,4411.0
2023-02-14T08:22:38.000Z,4475.0
2023-02-14T08:23:38.000Z,4353.0
2023-02-14T08:24:38.000Z,4243.0
2023-02-14T08:25:38.000Z,4310.0
2023-02-14T08:26:38.000Z,4153.0
2023-02-14T08:27:37.000Z,3980.0
2023-02-14T08:28:38.000Z,3870.0
2023-02-14T08:29:38.000Z,3693.0
2023-02-14T08:30:38.000Z,3833.0
2023-02-14T08:31:38.000Z,3779.0
2023-02-14T08:32:37.000Z,3949.0
2023-02-14T08:33:38.000Z,3850.0
2023-02-14T08:34:38.000Z,3931.0
2023-02-14T08:35:37.000Z,3802.0
2023-02-14T08:36:38.000Z,3849.0
2023-02-14T08:37:39.000Z,3873.0
2023-02-14T08:38:38.000Z,3810.0
2023-02-14T08:39:38.000Z,3645.0
2023-02-14T08:40:37.000Z,3485.0
2023-02-14T08:41:38.000Z,3422.0
2023-02-14T08:42:38.000Z,3538.0
2023-02-14T08:43:38.000Z,3637.0
2023-02-14T08:44:38.000Z,3610.0
2023-02-14T08:45:37.000Z,3477.0
2023-02-14T08:46:38.000Z,3707.0
2023-02-14T08:47:38.000Z,3626.0
2023-02-14T08:48:38.000Z,3528.0
2023-02-14T08:49:38.000Z,3647.0
2023-02-14T08:50:38.000Z,3660.0
2023-02-14T08:51:38.000Z,3759.0
2023-02-14T08:52:38.000Z,3804.0
2023-02-14T08:53:37.000Z,3939.0
2023-02-14T08:54:38.000Z,4325.0
2023-02-14T08:55:38.000Z,4195.0
2023-02-14T08:56:38.000Z,4109.0
2023-02-14T08:57:38.000Z,4077.0
2023-02-14T08:58:37.000Z,3900.0
2023-02-14T08:59:38.000Z,3888.0
2023-02-14T09:00:38.000Z,4096.0
2023-02-14T09:01:37.000Z,4364.0
2023-02-14T09:02:38.000Z,5017.0
2023-02-14T09:03:38.000Z,5406.0
2023-02-14T09:04:38.000Z,6025.0
2023-02-14T09:05:38.000Z,6403.0
2023-02-14T09:06:39.000Z,6706.0
2023-02-14T09:07:38.000Z,6918.0
2023-02-14T09:08:38.000Z,7459.0
2023-02-14T09:09:38.000Z,7898.0
2023-02-14T09:10:38.000Z,9040.0
2023-02-14T09:11:38.000Z,9322.0
2023-02-14T09:12:38.000Z,9342.0
2023-02-14T09:13:38.000Z,9842.0
2023-02-14T09:14:37.000Z,9409.0
2023-02-14T09:15:38.000Z,9852.0
2023-02-14T09:16:38.000Z,10753.0
2023-02-14T09:17:38.000Z,10982.0
2023-02-14T09:18:38.000Z,11587.0
2023-02-14T09:19:37.000Z,12719.0
2023-02-14T09:20:38.000Z,13584.0
2023-02-14T09:21:38.000Z,14623.0
2023-02-14T09:22:37.000Z,15171.0
2023-02-14T09:23:38.000Z,16000.0
2023-02-14T09:24:38.000Z,16000.0
2023-02-14T09:25:38.000Z,16000.0
2023-02-14T09:26:38.000Z,16000.0
2023-02-14T09:27:37.000Z,16000.0
2023-02-14T09:28:38.000Z,16000.0
2023-02-14T09:29:38.000Z,16000.0
2023-02-14T09:30:38.000Z,16000.0
2023-02-14T09:31:38.000Z,16000.0
2023-02-14T09:32:37.000Z,16000.0
2023-02-14T09:33:38.000Z,16000.0
2023-02-14T09:34:38.000Z,16000.0
2023-02-14T09:35:37.000Z,16000.0
2023-02-14T09:36:38.000Z,16000.0
2023-02-14T09:37:38.000Z,16000.0
2023-02-14T09:38:38.000Z,16000.0
2023-02-14T09:39:38.000Z,16000.0
2023-02-14T09:40:37.000Z,16000.0
2023-02-14T09:41:38.000Z,16000.0
2023-02-14T09:42:38.000Z,16000.0
2023-02-14T09:43:38.000Z,16000.0
2023-02-14T09:44:38.000Z,16000.0
2023-02-14T09:45:37.000Z,16000.0
2023-02-14T09:46:38.000Z,16000.0
2023-02-14T09:47:38.000Z,16000.0
2023-02-14T09:48:37.000Z,16000.0
2023-02-14T09:49:38.000Z,16000.0
2023-02-14T09:50:38.000Z,16000.0
2023-02-14T09:51:38.000Z,16000.0
2023-02-14T09:52:38.000Z,16000.0
2023-02-14T09:53:37.000Z,16000.0
2023-02-14T09:54:38.000Z,16000.0
2023-02-14T09:55:38.000Z,16000.0
2023-02-14T09:56:38.000Z,16000.0
2023-02-14T09:57:38.000Z,16000.0
2023-02-14T09:58:37.000Z,16000.0
2023-02-14T09:59:38.000Z,16000.0
2023-02-14T10:00:38.000Z,16000.0
2023-02-14T10:01:37.000Z,16000.0
2023-02-14T10:02:38.000Z,16000.0
2023-02-14T10:03:38.000Z,16000.0
2023-02-14T10:04:38.000Z,16000.0
2023-02-14T10:05:38.000Z,16000.0
2023-02-14T10:06:39.000Z,16000.0
2023-02-14T10:07:38.000Z,16000.0
2023-02-14T10:08:38.000Z,16000.0
2023-02-14T10:09:38.000Z,16000.0
2023-02-14T10:10:38.000Z,16000.0
2023-02-14T10:11:38.000Z,16000.0
2023-02-14T10:12:38.000Z,16000.0
2023-02-14T10:13:38.000Z,16000.0
2023-02-14T10:14:37.000Z,16000.0
2023-02-14T10:15:38.000Z,16000.0
2023-02-14T10:16:38.000Z,16000.0
2023-02-14T10:17:38.000Z,16000.0
2023-02-14T10:18:38.000Z,16000.0
2023-02-14T10:19:37.000Z,16000.0
2023-02-14T10:20:38.000Z,16000.0
2023-02-14T10:21:38.000Z,16000.0
2023-02-14T10:22:37.000Z,16000.0
2023-02-14T10:23:38.000Z,16000.0
2023-02-14T10:24:39.000Z,16000.0
2023-02-14T10:25:38.000Z,16000.0
2023-02-14T10:26:38.000Z,16000.0
2023-02-14T10:42:38.000Z,16000.0
2023-02-14T10:43:38.000Z,16000.0
2023-02-14T10:44:38.000Z,16000.0
2023-02-14T10:45:37.000Z,16000.0
2023-02-14T10:46:38.000Z,16000.0
2023-02-14T10:47:38.000Z,16000.0
2023-02-14T10:48:37.000Z,16000.0
2023-02-14T10:49:38.000Z,16000.0
2023-02-14T10:50:38.000Z,16000.0
2023-02-14T10:51:38.000Z,16000.0
2023-02-14T10:52:38.000Z,16000.0
2023-02-14T10:53:37.000Z,16000.0
2023-02-14T10:54:38.000Z,16000.0
2023-02-14T10:55:38.000Z,16000.0
2023-02-14T10:56:38.000Z,16000.0
2023-02-14T10:57:38.000Z,16000.0
2023-02-14T10:58:37.000Z,16000.0
2023-02-14T10:59:38.000Z,16000.0
2023-02-14T11:00:38.000Z,16000.0
2023-02-14T11:01:37.000Z,16000.0
2023-02-14T11:02:38.000Z,16000.0
2023-02-14T11:03:38.000Z,16000.0
2023-02-14T11:04:38.000Z,16000.0
2023-02-14T11:05:38.000Z,16000.0
2023-02-14T11:06:37.000Z,16000.0
2023-02-14T11:07:38.000Z,16000.0
2023-02-14T11:08:38.000Z,16000.0
2023-02-14T11:09:37.000Z,16000.0
2023-02-14T11:10:38.000Z,16000.0
2023-02-14T11:11:38.000Z,16000.0
2023-02-14T11:12:38.000Z,16000.0
2023-02-14T11:13:38.000Z,16000.0
2023-02-14T11:14:37.000Z,16000.0
2023-02-14T11:15:38.000Z,16000.0
2023-02-14T11:16:38.000Z,16000.0
2023-02-14T11:17:37.000Z,16000.0
2023-02-14T11:18:38.000Z,16000.0
2023-02-14T11:19:38.000Z,16000.0
2023-02-14T11:20:38.000Z,16000.0
2023-02-14T11:21:38.000Z,16000.0
2023-02-14T11:22:37.000Z,16000.0
2023-02-14T11:23:38.000Z,16000.0
2023-02-14T11:24:38.000Z,16000.0
2023-02-14T11:25:37.000Z,16000.0
2023-02-14T11:26:38.000Z,16000.0
2023-02-14T11:27:38.000Z,16000.0
2023-02-14T11:28:38.000Z,16000.0
2023-02-14T11:29:38.000Z,16000.0
2023-02-14T11:30:37.000Z,16000.0
2023-02-14T11:31:38.000Z,16000.0
2023-02-14T11:32:38.000Z,16000.0
2023-02-14T11:33:38.000Z,16000.0
2023-02-14T11:34:38.000Z,16000.0
2023-02-14T11:35:37.000Z,16000.0
2023-02-14T11:36:38.000Z,16000.0
2023-02-14T11:37:38.000Z,16000.0
2023-02-14T11:38:37.000Z,16000.0
2023-02-14T11:39:38.000Z,16000.0
2023-02-14T11:40:38.000Z,16000.0
2023-02-14T11:41:38.000Z,16000.0
2023-02-14T11:42:38.000Z,16000.0
2023-02-14T11:43:37.000Z,16000.0
2023-02-14T11:44:38.000Z,16000.0
2023-02-14T11:45:38.000Z,16000.0
2023-02-14T11:46:38.000Z,16000.0
2023-02-14T11:47:38.000Z,16000.0
2023-02-14T11:48:37.000Z,16000.0
2023-02-14T11:49:38.000Z,16000.0
2023-02-14T11:50:38.000Z,16000.0
2023-02-14T11:51:37.000Z,16000.0
2023-02-14T11:52:38.000Z,16000.0
2023-02-14T11:53:38.000Z,16000.0
2023-02-14T11:54:38.000Z,16000.0
2023-02-14T11:55:38.000Z,16000.0
2023-02-14T11:56:37.000Z,16000.0
2023-02-14T11:57:38.000Z,16000.0
2023-02-14T11:58:38.000Z,16000.0
2023-02-14T11:59:38.000Z,16000.0
2023-02-14T12:00:38.000Z,16000.0
2023-02-14T12:01:37.000Z,16000.0
2023-02-14T12:02:38.000Z,16000.0
2023-02-14T12:03:38.000Z,16000.0
2023-02-14T12:04:37.000Z,16000.0
2023-02-14T12:05:38.000Z,16000.0
2023-02-14T12:06:38.000Z,16000.0
2023-02-14T12:07:37.000Z,16000.0
2023-02-14T12:08:38.000Z,16000.0
2023-02-14T12:09:38.000Z,16000.0
2023-02-14T12:10:38.000Z,16000.0
2023-02-14T12:11:38.000Z,16000.0
2023-02-14T12:12:37.000Z,16000.0
2023-02-14T12:13:38.000Z,16000.0
2023-02-14T12:14:38.000Z,16000.0
2023-02-14T12:15:37.000Z,16000.0
2023-02-14T12:16:38.000Z,16000.0
2023-02-14T12:17:38.000Z,16000.0
2023-02-14T12:18:38.000Z,16000.0
2023-02-14T12:19:38.000Z,16000.0
2023-02-14T12:20:37.000Z,16000.0
2023-02-14T12:21:38.000Z,16000.0
2023-02-14T12:22:38.000Z,16000.0
2023-02-14T12:23:38.000Z,16000.0
2023-02-14T12:24:38.000Z,16000.0
2023-02-14T12:25:37.000Z,16000.0
2023-02-14T12:26:38.000Z,16000.0
2023-02-14T12:27:38.000Z,16000.0
2023-02-14T12:28:37.000Z,16000.0
2023-02-14T12:29:38.000Z,16000.0
2023-02-14T12:30:38.000Z,16000.0
2023-02-14T12:31:38.000Z,16000.0
2023-02-14T12:32:38.000Z,16000.0
2023-02-14T12:33:37.000Z,16000.0
2023-02-14T12:34:38.000Z,16000.0
2023-02-14T12:35:38.000Z,16000.0
2023-02-14T12:36:38.000Z,16000.0
2023-02-14T12:37:38.000Z,16000.0
2023-02-14T12:38:37.000Z,16000.0
2023-02-14T12:39:38.000Z,16000.0
2023-02-14T12:40:38.000Z,16000.0
2023-02-14T12:41:37.000Z,16000.0
2023-02-14T12:42:38.000Z,16000.0
2023-02-14T12:43:38.000Z,16000.0
2023-02-14T12:44:38.000Z,16000.0
2023-02-14T12:45:38.000Z,16000.0
2023-02-14T12:46:37.000Z,16000.0
2023-02-14T12:47:38.000Z,16000.0
2023-02-14T12:48:38.000Z,16000.0
2023-02-14T12:49:38.000Z,16000.0
2023-02-14T12:50:38.000Z,16000.0
2023-02-14T12:51:37.000Z,16000.0
2023-02-14T12:52:38.000Z,16000.0
2023-02-14T12:53:38.000Z,16000.0